x

8570283 - Ocean City Inlet, Md (ocim2) Weather Station

1:12 - Fri 15th Feb 2019 All times are EST. -5 hours from GMT.

  • Wind
    16mph, 18mph gusts
  • Sea Temp 43°f
  • Aire Temp 46°f
  • Sea Pressure 1008.2mb
  • 8570283 - Ocean City Inlet, Md
  • 8570283 - Ocean City Inlet, Md

More Historic Weather Station data

Upgrade to MSW Pro to gain access to the past 30 days of data for over 8000 Wavebouys and Weather Stations around the globe.

Join

Comparision Forecast

View Surf forecast
   
vie 02/15 1:12 16 18 mph 1008.2mb 43f 46f
1:06 17 20 mph 1008.3mb 43f 46f
1:00 17 20 mph 1008.3mb 43f 46f
12:54 16 20 mph 1008.4mb 42f 46f
12:48 20 23 mph 1008.6mb 42f 46f
12:42 18 21 mph 1008.7mb 42f 46f
12:36 18 21 mph 1008.8mb 42f 46f
12:30 17 21 mph 1008.9mb 42f 46f
12:24 17 22 mph 1009.1mb 42f 46f
12:18 16 21 mph 1009.3mb 42f 46f
12:12 18 23 mph 1009.3mb 42f 46f
12:06 17 20 mph 1009.6mb 42f 46f
12:00 16 21 mph 1009.7mb 42f 46f
11:54 17 22 mph 1009.8mb 42f 46f
11:48 16 20 mph 1009.9mb 41f 46f
11:42 15 18 mph 1010mb 41f 46f
11:36 15 17 mph 1010.1mb 41f 46f
11:30 16 20 mph 1010.2mb 41f 47f
11:24 14 18 mph 1010.2mb 41f 48f
11:18 16 20 mph 1010.3mb 41f 49f
11:12 16 21 mph 1010.5mb 41f 48f
11:06 16 21 mph 1010.6mb 41f 48f
11:00 15 18 mph 1010.7mb - -
10:54 15 18 mph 1010.7mb 41f 47f
10:48 16 22 mph - - -
10:42 15 17 mph 1010.9mb 41f 46f
10:36 14 17 mph 1011mb 41f 47f
10:24 16 18 mph 1011.2mb 40f 46f
10:18 17 18 mph 1011.3mb 40f 46f
10:12 17 20 mph 1011.4mb 40f 45f
10:06 16 20 mph 1011.5mb 40f 46f
10:00 15 17 mph 1011.6mb 40f 45f
9:54 14 16 mph 1011.7mb 40f 46f
9:48 20 24 mph 1011.7mb 40f 49f
9:42 20 25 mph 1011.7mb 40f 52f
9:36 16 22 mph 1011.9mb 40f 51f
9:30 15 18 mph 1011.9mb 40f 50f
9:24 14 18 mph 1011.9mb 40f 48f
9:18 13 15 mph 1012.1mb 40f 45f
9:12 14 16 mph 1012.1mb 40f 45f
9:06 14 17 mph 1012.1mb 40f 45f
9:00 13 14 mph 1012.1mb 40f 44f
8:42 7 9 mph 1012.2mb 40f 45f
8:36 8 9 mph 1012.3mb 40f 45f
8:30 11 15 mph 1012.4mb 40f 46f
8:24 15 18 mph 1012.3mb 40f 47f
8:18 14 18 mph 1012.4mb 40f 47f
8:12 10 13 mph 1012.4mb 40f 46f
8:06 9 11 mph 1012.5mb 40f 45f
8:00 10 13 mph 1012.3mb 40f -
7:42 9 11 mph 1012.3mb 40f 44f
7:36 8 11 mph 1012.4mb 40f 43f
7:30 9 10 mph 1012.5mb 40f 43f
7:24 9 11 mph 1012.6mb 40f 42f
7:18 9 10 mph 1012.7mb 40f 42f
7:12 8 10 mph 1012.8mb 40f 42f
7:06 10 13 mph 1012.8mb 40f 42f
7:00 10 13 mph 1013mb 40f 42f
6:54 10 13 mph 1013mb 40f 42f
6:48 9 11 mph 1012.9mb 40f 42f
6:42 9 11 mph 1012.7mb 40f 44f
6:36 10 11 mph 1013.2mb 40f 43f
6:30 9 13 mph 1013.3mb 40f 43f
6:24 11 14 mph 1013.2mb 40f 44f
6:18 10 11 mph 1013.1mb 40f 44f
6:12 11 13 mph 1013.3mb 40f 44f
6:06 9 11 mph 1013.3mb 40f 43f
6:00 9 10 mph 1013.3mb 40f 43f
5:54 8 10 mph 1013.5mb 40f 43f
5:48 9 10 mph 1013.4mb - -
5:42 10 13 mph 1013.4mb 40f 45f
5:36 14 17 mph 1013.7mb 40f 45f
5:30 13 15 mph 1013.4mb 40f 44f
5:24 11 13 mph 1013.5mb 40f 44f
5:18 11 15 mph - - -
5:12 10 11 mph 1013.4mb 40f 43f
5:06 9 11 mph 1013.6mb 40f 43f
5:00 9 10 mph 1013.5mb 40f 42f
4:42 10 11 mph 1013.6mb 40f 42f
4:36 10 13 mph 1013.6mb 40f 42f
4:30 10 11 mph 1013.6mb 40f 42f
4:24 10 13 mph 1013.6mb 40f 42f
4:18 10 13 mph 1013.7mb 40f 42f
4:12 11 14 mph 1013.7mb 40f 42f
4:06 11 14 mph 1013.9mb 40f 42f
4:00 11 13 mph 1013.9mb 40f 42f
3:54 13 14 mph 1014mb 40f 42f
3:48 11 14 mph 1013.9mb 40f 42f
3:42 11 14 mph 1014mb 40f 42f
3:36 11 14 mph 1014.1mb 40f 42f
3:30 11 13 mph 1014.2mb 40f 42f
3:24 10 13 mph 1014.3mb 40f 42f
3:18 10 13 mph 1014.3mb 40f 42f
3:12 11 13 mph 1014.4mb 40f 42f
3:06 10 13 mph 1014.4mb 40f 42f
3:00 10 11 mph 1014.6mb 40f 42f
2:54 10 11 mph 1014.7mb 40f 42f
2:48 10 11 mph 1014.8mb 41f 42f
2:42 10 11 mph 1014.8mb 41f 42f
2:36 9 11 mph 1014.9mb 41f 42f
2:30 9 10 mph 1014.9mb 41f 42f
2:24 9 10 mph 1015mb 41f 42f
2:18 7 10 mph 1015mb 41f 42f
2:12 8 10 mph 1015.1mb 41f 42f
2:06 7 9 mph 1015.2mb 41f 42f
2:00 9 11 mph - - -
1:54 9 13 mph 1015.3mb 41f 42f
1:48 9 11 mph 1015.5mb 41f 42f
1:42 10 11 mph 1015.4mb 41f 42f
1:36 10 13 mph 1015.5mb 41f 43f
1:30 9 11 mph 1015.7mb - -
1:24 9 10 mph 1015.8mb 41f 43f
1:18 9 10 mph 1015.8mb 41f 43f
1:12 9 10 mph 1015.8mb 41f 43f
1:06 8 9 mph 1015.8mb 41f 42f
1:00 6 7 mph 1016mb 41f 42f
12:54 7 8 mph 1016.1mb 41f 42f
12:48 7 8 mph 1016.2mb 41f 42f
12:42 7 8 mph 1016.4mb 41f 42f
12:36 6 7 mph 1016.4mb 41f 41f
12:30 6 6 mph 1016.1mb 41f 42f
12:24 6 7 mph 1016.2mb 42f 42f
12:18 5 6 mph 1016.2mb 42f 42f
12:12 3 6 mph 1016.2mb 43f 42f
12:06 5 7 mph 1016.1mb 43f 42f
12:00 6 7 mph 1016.2mb 43f 42f
jue 02/14 11:30 8 10 mph 1016.5mb 43f 42f
11:24 8 9 mph 1016.7mb 43f 42f
11:18 6 8 mph 1016.9mb 43f 42f
11:12 6 8 mph 1017mb 43f 42f
11:06 7 9 mph 1017.1mb 43f 42f
11:00 8 10 mph 1017.3mb 43f 42f
10:54 7 9 mph 1017.2mb 43f 42f
10:48 8 9 mph 1017.5mb 43f 42f
10:42 8 9 mph 1017.5mb 43f 42f
10:36 7 8 mph 1017.5mb 43f 42f
10:30 7 9 mph 1017.7mb 43f 42f
10:24 7 8 mph 1017.8mb 43f 43f
10:18 7 9 mph 1018mb 43f 43f
10:12 7 8 mph 1018.1mb 43f 43f
10:06 7 8 mph 1018mb 43f 42f
10:00 8 9 mph 1018mb 43f 42f
9:54 9 10 mph 1018.3mb 43f 43f
9:48 9 11 mph 1018.2mb 43f 43f
9:42 10 11 mph 1018.3mb 43f 43f
9:36 10 13 mph 1018.2mb 43f 43f
9:30 11 13 mph 1018.2mb 43f -
9:24 10 15 mph 1018mb 43f 43f
9:18 11 14 mph 1018.2mb 42f 43f
9:12 11 13 mph 1018.5mb 42f 43f
9:06 8 13 mph 1018.1mb 42f 43f
9:00 10 13 mph 1018.2mb 42f 43f
8:54 10 13 mph 1018.3mb 42f 43f
8:48 9 13 mph 1018mb 42f 42f
8:42 8 13 mph 1018.2mb 42f 42f
8:36 8 13 mph 1018.3mb 42f 43f
8:30 8 13 mph 1018.3mb 42f 43f
8:24 10 14 mph 1018.1mb 42f 42f
8:18 10 13 mph 1018.5mb 42f 43f
8:12 9 13 mph 1018.5mb 42f 43f
8:06 10 14 mph 1018.6mb 42f 43f
8:00 9 15 mph 1018.5mb 42f 42f
7:30 9 13 mph 1018.6mb 41f 42f
7:24 9 14 mph 1018.6mb 41f 42f
7:18 10 15 mph 1018.6mb 41f 42f
7:12 10 14 mph 1018.4mb 41f 42f
7:06 9 11 mph 1018.9mb 41f 42f
7:00 9 11 mph 1018.7mb 41f 42f
6:30 6 8 mph 1018.5mb 41f -
6:24 7 9 mph 1018.6mb 41f 42f
6:18 6 7 mph 1018.6mb 41f 42f
6:12 5 6 mph 1018.5mb 41f 42f
6:06 6 8 mph 1018.6mb 41f 42f
6:00 6 7 mph 1018.6mb 41f 42f
5:54 6 7 mph 1018.5mb 41f 42f
5:48 6 7 mph 1018.6mb 41f 42f
5:42 6 7 mph 1018.5mb 41f 42f
5:36 7 8 mph 1018.4mb 41f 42f
5:30 7 8 mph 1018.6mb 41f 42f
5:24 7 8 mph 1018.7mb 41f 42f
5:18 8 9 mph 1018.7mb 42f 42f
5:12 8 9 mph 1018.7mb 42f 42f
5:06 8 10 mph 1018.8mb 42f 42f
5:00 8 9 mph 1018.7mb 42f 42f
4:30 8 9 mph 1019.3mb 40f 42f
4:24 7 8 mph 1019.4mb 40f 42f
4:18 7 8 mph 1019.5mb 40f 42f
4:12 7 8 mph 1019.5mb 40f 42f
4:06 8 9 mph 1019.7mb 40f 43f
4:00 10 11 mph 1019.8mb 40f 43f
3:54 9 10 mph 1019.9mb 40f 43f
3:48 11 14 mph 1020.1mb 40f 43f
3:42 13 14 mph 1020.2mb 40f 43f
3:36 13 14 mph 1020.3mb 40f 43f
3:30 10 11 mph 1020.4mb 40f 42f
3:24 14 15 mph 1020.4mb 40f 42f
3:18 14 16 mph 1020.4mb 40f 42f
3:12 14 15 mph 1020.4mb 40f 43f
3:06 11 14 mph 1020.4mb 40f 42f
3:00 13 15 mph 1020.3mb 40f 42f
2:30 13 16 mph 1020.2mb 40f 44f
2:24 9 13 mph 1020.2mb 40f 43f
2:18 11 13 mph 1020.2mb 40f 43f
2:12 11 14 mph 1020.3mb 40f 43f
2:06 11 14 mph 1020.4mb 41f 43f
1:30 8 10 mph 1020.3mb 42f 44f
1:24 7 10 mph 1020.2mb 42f 44f
1:18 7 11 mph 1020mb 42f 45f
1:12 7 10 mph 1020.1mb 42f 44f
1:06 6 8 mph 1020.2mb 42f 44f
1:00 7 9 mph 1020.1mb 42f 44f
12:54 8 9 mph 1020.1mb 42f 44f
12:48 5 7 mph 1020.1mb 42f 44f
12:42 7 10 mph 1020.3mb 42f 44f
12:36 7 8 mph 1020.4mb 42f 43f
12:30 6 8 mph 1020.4mb 42f 43f
12:24 5 7 mph 1020.3mb 42f 44f
12:18 7 9 mph 1020.3mb 42f 43f
12:12 6 8 mph 1020.3mb 42f 44f
12:06 7 9 mph 1020.5mb 41f 43f
12:00 8 11 mph 1020.7mb 41f 44f
11:54 6 8 mph 1020.7mb 41f 44f
11:48 5 8 mph - - -
11:42 6 7 mph 1021.3mb 41f 43f
11:36 6 8 mph 1021.6mb 41f 43f
11:30 8 10 mph 1021.7mb 41f 43f
11:24 7 10 mph 1021.6mb 41f 43f
11:18 7 9 mph 1021.4mb 41f 43f
11:12 6 8 mph 1021.1mb 41f 43f
11:06 7 9 mph 1021.1mb 41f 43f
11:00 7 9 mph 1021mb 41f 43f
10:30 7 9 mph 1021.1mb 41f 46f
10:24 8 10 mph 1021.3mb 41f 46f
10:18 9 13 mph 1021.4mb 41f 45f
10:12 6 8 mph 1021.5mb 41f 45f
10:06 8 11 mph 1021.5mb 41f 45f
10:00 9 11 mph 1021.5mb 41f 44f
9:30 2 5 mph 1021.4mb 41f 44f
9:24 3 6 mph 1021.4mb 41f 44f
9:18 5 7 mph 1021.4mb 41f 43f
9:12 5 6 mph 1021.2mb 41f 43f
9:06 3 5 mph 1021.2mb 41f 43f
9:00 5 6 mph 1021.2mb 41f 42f
8:54 5 6 mph 1021.1mb 40f 42f
8:48 5 6 mph - - -
8:42 5 6 mph 1021.1mb 40f 41f
8:36 2 2 mph 1021mb 40f 41f
8:30  -  1 mph 1021mb 40f 41f
8:24  -  2 mph 1020.9mb 40f 40f
8:18 2 2 mph 1020.9mb 40f 38f
8:12  -  1 mph 1020.8mb 40f 38f
8:06 1 2 mph 1020.8mb 40f 37f
8:00  -  1 mph 1020.8mb 40f 37f
7:30 1 2 mph 1020.4mb 40f 36f
7:24  -  0 mph 1020.2mb 40f 36f
7:18  -  1 mph 1020.1mb 40f 35f
7:12 2 2 mph 1020.1mb 40f 35f
7:06 1 2 mph 1020mb 40f 35f
7:00  -  1 mph 1020mb 40f 35f
6:30  -  0 mph 1020.1mb 39f 34f
6:24  -  0 mph 1020mb 39f 34f
6:18  -  1 mph 1020.2mb - -
6:12 1 2 mph 1020.2mb 39f 35f
6:06  -  1 mph 1019.9mb 39f 35f
6:00 1 2 mph 1019.8mb 39f 35f
5:54 2 3 mph 1019.9mb 39f 35f
5:48 2 3 mph 1019.8mb 39f 35f
5:42 3 3 mph 1019.7mb 39f 35f
5:36 2 3 mph 1019.5mb 39f 35f
5:30 3 3 mph 1019.5mb 39f 35f
5:24 3 5 mph 1019.5mb 39f 35f
5:18 3 3 mph 1019.5mb 39f 35f
5:12 3 3 mph 1019.4mb 39f 35f
5:06 3 5 mph 1019.3mb 39f 35f
5:00 3 5 mph 1019.2mb 39f 35f
4:54 2 3 mph 1019.2mb 39f 35f
4:48 5 5 mph 1019.2mb 39f 35f
4:42 3 6 mph 1019.2mb 40f 35f
4:36 3 6 mph 1019.2mb 40f 36f
4:30 3 5 mph 1019.2mb 40f 36f
4:24 5 6 mph 1019.2mb 40f 36f
4:18 6 6 mph 1019.1mb 40f 36f
4:12 6 7 mph 1019.1mb 40f 36f
4:06 5 6 mph 1019.1mb 40f 36f
4:00 5 6 mph 1018.9mb 40f 36f
3:54 3 5 mph 1018.8mb 40f 36f
3:48 5 6 mph 1018.8mb 40f 36f
3:42 6 7 mph 1018.8mb 40f 36f
3:36 5 6 mph 1018.8mb 40f 36f
3:30 7 9 mph 1018.7mb 40f 37f
3:24 6 6 mph 1018.6mb 40f 37f
3:18 5 6 mph 1018.6mb 40f 37f
3:12 5 6 mph 1018.5mb 40f 37f
3:06 5 6 mph 1018.4mb 40f 36f
3:00 5 6 mph 1018.3mb 40f 36f
2:54 5 7 mph 1018.3mb 40f 37f
2:48 5 6 mph 1018mb 40f 37f
2:42 6 6 mph 1017.9mb 40f 37f
2:36 5 6 mph 1017.8mb 40f 37f
2:30 5 6 mph 1017.8mb 40f 37f
2:24 5 5 mph 1017.9mb 40f 36f
2:18 3 3 mph 1017.8mb 40f 36f
2:12 3 6 mph 1017.5mb 40f 36f
2:06 5 6 mph 1017.5mb 40f 36f
2:00 5 6 mph 1017.5mb 40f 36f
1:54 7 8 mph 1017.5mb 40f 36f
1:48 6 7 mph 1017.4mb 40f 36f
1:42 6 7 mph 1017.3mb 40f 36f
1:36 7 8 mph 1017.2mb 40f 36f
1:30 8 9 mph 1017.1mb 40f 36f
1:24 6 7 mph 1017mb 40f 36f
1:18 3 5 mph - - -
1:12 3 5 mph 1016.8mb 40f 35f
1:06 2 3 mph 1016.8mb 40f 36f
1:00 3 5 mph 1016.8mb 40f 36f
12:54 2 3 mph 1016.7mb 40f 36f
12:48 2 2 mph 1016.6mb 41f 36f
12:42  -  1 mph 1016.7mb 41f 37f
12:36 2 2 mph 1016.7mb 41f 37f
12:30 2 2 mph 1016.7mb - -
12:24 2 3 mph 1016.4mb 42f 36f
12:18 2 2 mph 1016.5mb 42f 36f
12:12 3 3 mph 1016.6mb 42f 37f
12:06 5 6 mph 1016.7mb 42f 36f
12:00 3 5 mph 1016.7mb - -
mié 02/13 11:54 3 3 mph 1016.6mb 42f 37f
11:48 5 5 mph 1016.6mb 42f 37f
11:42 6 6 mph 1016.6mb 42f 37f
11:36 3 3 mph 1016.5mb 42f 37f
11:30 2 3 mph 1016.5mb 42f 38f
11:24 2 3 mph 1016.7mb 42f 38f
11:18 3 3 mph 1016.7mb 42f 39f
11:12 3 5 mph 1016.6mb 42f 38f
11:06 5 6 mph 1016.5mb 42f 39f
11:00 5 6 mph 1016.4mb 42f 39f
10:54 6 7 mph 1016.3mb 42f 39f
10:48 7 9 mph 1016.2mb 42f 39f
10:42 8 9 mph 1016.3mb 42f 39f
10:36 8 11 mph 1016.3mb 42f 40f
10:30 8 9 mph 1016.2mb 42f 40f
10:24 7 9 mph 1016.3mb 42f 40f
10:18 9 11 mph 1016.3mb 42f 40f
10:12 8 10 mph 1016.1mb 42f 39f
10:06 6 6 mph 1016mb 42f 38f
10:00 3 5 mph 1015.7mb 42f 38f
9:54 3 3 mph 1015.6mb 42f 39f
9:48 3 5 mph 1015.6mb 42f 40f
9:42 3 5 mph 1015.5mb 42f 39f
9:36 3 3 mph 1015.2mb 42f 40f
9:30 3 5 mph 1015.1mb 42f 40f
9:24 3 3 mph 1015.1mb 42f 40f
9:18 3 5 mph 1014.9mb 42f 40f
9:12 5 6 mph 1014.8mb 42f 41f
9:06 5 6 mph 1014.7mb 42f 41f
9:00 6 7 mph 1014.6mb 42f 41f
8:54 6 7 mph 1014.4mb 42f 41f
8:48 6 6 mph 1014.3mb 42f 41f
8:42 6 6 mph 1014mb 42f 42f
8:36 6 6 mph 1013.8mb 42f 42f
8:30 6 7 mph 1013.9mb 42f 42f
8:24 7 9 mph 1013.9mb 42f 42f
8:18 7 8 mph 1013.8mb 42f 42f
8:12 6 7 mph 1013.8mb 42f 42f
8:06 6 8 mph 1013.8mb 42f 42f
8:00 6 7 mph 1013.7mb 42f 42f
7:54 7 9 mph 1013.7mb 42f 42f
7:48 6 7 mph 1013.4mb 42f 43f
7:42 6 7 mph 1013.2mb 41f 43f
7:36 6 8 mph 1013.2mb 41f 43f
7:30 5 6 mph 1013.1mb 41f 43f
7:24 6 6 mph 1012.7mb 41f 43f
7:18 3 5 mph 1012.6mb 41f 43f
7:12 5 6 mph 1012.5mb 41f 44f
7:06 5 6 mph 1012.4mb 41f 44f
7:00 5 6 mph 1012.3mb 41f 44f
6:42 5 5 mph 1012.1mb 41f 43f
6:36 5 6 mph 1011.9mb 41f 44f
6:30 6 6 mph 1011.8mb 41f 44f
6:24 6 6 mph 1011.7mb 40f 44f
6:18 5 6 mph 1011.7mb 40f 44f
6:12 5 6 mph 1011.6mb 40f 45f
6:06 6 7 mph 1011.4mb 40f 46f
6:00 6 8 mph 1011.3mb 40f 46f
5:54 8 9 mph 1011.3mb 40f 46f
5:48 7 9 mph 1011.2mb 40f 46f
5:42 7 9 mph 1011.2mb 40f 47f
5:36 7 9 mph 1011.2mb 40f 47f
5:30 9 14 mph 1011mb 40f 47f
5:24 11 17 mph 1010.9mb 40f 47f
5:18 13 16 mph 1010.7mb 40f 47f
5:12 14 20 mph 1010.6mb 40f 47f
5:06 13 16 mph 1010.5mb 40f 47f
5:00 10 14 mph 1010.5mb 40f 47f
4:30 14 17 mph 1010.3mb 40f 48f
4:24 14 24 mph 1010.2mb 40f 47f
4:18 15 22 mph 1010.2mb 40f 47f
4:12 13 22 mph 1010.4mb 40f 47f
4:06 13 18 mph 1010.2mb 40f 47f
4:00 14 21 mph 1010.1mb 40f 47f
3:54 18 23 mph 1010.1mb 40f 48f
3:48 16 23 mph 1010.1mb 40f 47f
3:42 14 17 mph 1009.9mb 40f 48f
3:36 15 23 mph 1009.8mb 40f 48f
3:30 15 21 mph 1009.7mb 40f -
3:24 17 23 mph 1009.4mb 40f 47f
3:18 18 29 mph 1009.4mb 40f 47f
3:12 17 23 mph 1009.3mb 40f 47f
3:06 16 21 mph 1009.5mb 40f 47f
3:00 17 24 mph 1009.6mb 40f 47f
2:54 16 23 mph 1009.6mb 40f 47f
2:48 15 22 mph 1009.5mb 40f 47f
2:42 15 23 mph 1009.4mb 40f 47f
2:36 17 24 mph 1009.4mb 40f 47f
2:30 17 22 mph 1009.4mb 40f 47f
2:24 14 22 mph 1009.2mb 40f 47f
2:18 17 25 mph 1009.2mb 40f 47f
2:12 17 24 mph 1009.3mb 40f 47f
2:06 17 23 mph 1009.3mb 40f 47f
2:00 18 26 mph 1009.1mb 40f 47f
1:30 18 25 mph 1008.9mb 40f 47f
1:24 15 23 mph 1008.7mb 40f 47f
1:18 14 22 mph 1008.7mb 40f 47f
1:12 13 16 mph 1008.7mb 40f 47f
1:06 13 21 mph 1008.7mb 40f 47f
1:00 17 25 mph 1008.7mb 40f 47f
12:54 15 20 mph 1008.7mb 40f 47f
12:48 17 24 mph 1008.8mb 40f 47f
12:42 11 16 mph 1008.9mb 40f 47f
12:36 15 18 mph 1008.8mb 40f 47f
12:30 17 22 mph 1009mb 40f 47f
12:24 20 24 mph 1009mb 40f 46f
12:18 20 22 mph 1009.1mb 40f 46f
12:12 16 20 mph 1009.3mb 40f 46f
12:06 16 22 mph 1009.4mb 40f 47f
12:00 21 26 mph 1009.4mb 40f 46f
11:54 20 25 mph 1009.5mb 40f 47f
11:48 20 30 mph - - -
11:42 16 25 mph 1009.6mb 40f 46f
11:36 18 29 mph 1009.7mb 40f 46f
11:30 15 21 mph 1009.8mb 40f 46f
11:24 17 36 mph 1009.9mb 40f 46f
11:18 11 15 mph 1010mb 40f 46f
11:12 14 18 mph 1010mb 40f 46f
11:06 11 15 mph 1010.2mb 40f 45f
11:00 16 22 mph 1010.2mb 40f 45f
10:54 15 21 mph 1010.3mb 40f 45f
10:48 16 22 mph 1010.3mb 40f 45f
10:42 17 22 mph 1010.2mb 40f 45f
10:36 14 18 mph 1010.2mb 40f 45f
10:30 9 14 mph 1010.2mb 40f 44f
10:24 8 11 mph 1010.3mb 40f 44f
10:18 10 14 mph 1010.3mb 40f 44f
10:12 15 18 mph 1010.3mb 40f 44f
10:06 10 17 mph 1010.4mb 40f 44f
10:00 14 17 mph - - -
9:54 13 17 mph 1010.4mb 40f 44f
9:48 11 18 mph 1010.4mb 40f 43f
9:42 14 18 mph 1010.4mb 40f 43f
9:36 11 16 mph 1010.4mb 40f 43f
9:30 16 24 mph 1010.4mb 40f 43f
9:24 14 18 mph 1010.3mb 40f 43f
9:18 15 21 mph 1010.3mb 40f 43f
9:12 15 21 mph 1010.3mb 40f 42f
9:06 15 21 mph 1010.2mb 40f 43f
9:00 9 13 mph 1010.2mb 40f 42f
8:54 13 18 mph 1010.1mb 40f 42f
8:48 10 15 mph 1010.1mb 40f 42f
8:42 11 17 mph 1010mb 40f 42f
8:36 9 15 mph 1010mb 40f 42f
8:30 10 16 mph 1009.8mb 40f 42f
8:24 8 13 mph 1009.7mb 40f 42f
8:18 7 9 mph 1009.8mb 40f 42f
8:12 7 9 mph 1009.8mb 40f 42f
8:06 7 10 mph 1009.7mb 40f 41f
8:00 7 9 mph 1009.5mb 40f 41f
7:54 9 11 mph 1009.4mb 40f 42f
7:48 7 9 mph 1009.3mb 40f 42f
7:42 7 10 mph 1009.1mb 40f 42f
7:36 7 9 mph 1009mb 40f 42f
7:30 6 8 mph 1008.8mb 40f 42f
7:24 6 8 mph 1008.7mb 40f 42f
7:18 6 8 mph 1008.7mb 40f 42f
7:12 7 8 mph 1008.7mb 40f 42f
7:06 6 8 mph 1008.6mb 40f 42f
7:00 6 8 mph 1008.5mb 40f 42f
6:54 8 13 mph 1008.3mb 40f 42f
6:48 8 11 mph 1008.3mb 40f 42f
6:42 6 8 mph 1008.2mb 40f 42f
6:36 8 10 mph 1008.3mb 40f 42f
6:30 8 13 mph 1008.1mb 40f 43f
6:24 10 16 mph 1008.1mb 40f 43f
6:18 9 14 mph 1007.8mb 40f 43f
6:12 10 16 mph 1007.5mb 40f 43f
6:06 15 21 mph 1007.3mb 39f 43f
6:00 15 21 mph 1007.6mb 39f 43f
5:54 14 17 mph 1007.6mb 39f 43f
5:48 13 17 mph 1007.9mb - -
5:42 14 20 mph 1008mb 40f 43f
5:36 11 15 mph 1008.1mb 40f 44f
5:30 14 18 mph 1008mb 40f 44f
5:24 13 21 mph 1008mb 40f 44f
5:18 11 15 mph 1007.9mb 40f 44f
5:12 15 22 mph 1007.4mb 40f 44f
5:06 15 23 mph 1007.3mb 40f 44f
5:00 16 23 mph 1007.2mb 40f 44f
4:54 17 26 mph 1007.1mb 40f 45f
4:48 14 17 mph 1006.5mb 40f 45f
4:42 11 16 mph 1006.5mb 40f 45f
4:36 11 15 mph 1005.9mb 40f 45f
4:30 17 24 mph 1005.8mb 40f 46f
4:24 13 20 mph 1005.6mb 40f 45f
4:18 14 23 mph 1005.5mb 40f 46f
4:12 16 22 mph 1005.4mb 40f 46f
4:06 15 21 mph 1005.2mb 40f 46f
4:00 18 24 mph 1004.9mb 40f 47f
3:54 16 21 mph 1004.9mb 39f 47f
3:48 14 21 mph 1004.8mb 39f 47f
3:42 13 17 mph 1004.6mb 39f 46f
3:36 11 15 mph 1004.1mb 39f 47f
3:30 13 16 mph 1003.8mb 39f 47f
3:24 13 16 mph 1003.9mb 39f 46f
3:18 14 22 mph 1004.2mb 39f 47f
3:12 14 21 mph 1004mb 39f 47f
3:06 15 18 mph 1003.8mb 39f 47f
3:00 14 18 mph 1004.3mb 39f 47f
2:54 16 22 mph 1004mb 39f 47f
2:48 14 18 mph 1004mb 39f 47f
2:42 16 22 mph 1004mb 39f 48f
2:36 15 20 mph 1004mb 39f 48f
2:30 14 18 mph 1004.5mb 39f 47f
2:24 16 21 mph 1004.2mb 39f 47f
2:18 16 21 mph 1004.4mb 39f 47f
2:12 14 17 mph 1004.1mb 39f 47f
2:06 13 17 mph 1003.9mb 39f 47f
2:00 13 17 mph 1003.9mb 39f 47f
1:54 11 15 mph 1003.7mb 39f 47f
1:48 11 16 mph 1003.8mb 39f 47f
1:42 11 16 mph 1003.9mb 39f 46f
1:36 13 16 mph 1004.2mb 39f 46f
1:30 8 10 mph 1003.4mb 39f 43f
1:24 9 9 mph 1003.1mb 39f 42f
1:18 9 10 mph 1003.1mb 39f 42f
1:12 9 11 mph 1003.3mb 40f 42f
1:06 9 11 mph 1003.5mb 40f 42f
1:00 9 11 mph 1003.4mb 40f 42f
12:54 9 13 mph 1003.5mb 40f 43f
12:48 9 11 mph 1003.8mb 40f 43f
12:42 9 11 mph 1003.9mb 40f 43f
12:36 9 10 mph 1004mb 40f 44f
12:30 8 10 mph 1004.3mb 40f 45f
12:24 7 9 mph 1004.4mb 40f 45f
12:18 7 9 mph 1004.7mb 40f 45f
12:12 8 10 mph 1005mb 40f 47f
12:06 7 9 mph 1004.9mb 40f 46f
12:00 5 6 mph 1004.9mb 40f 46f
mar 02/12 11:54 7 9 mph 1005mb 40f 47f
11:48 5 7 mph 1005mb 40f 47f
11:42 5 6 mph 1005.1mb 40f 47f
11:36 6 8 mph 1005.3mb 40f 48f
11:30 8 11 mph 1005.8mb 40f 48f
11:24 3 7 mph 1005.6mb 40f 48f
11:18 6 13 mph 1006mb 40f 47f
11:12 16 21 mph 1006.4mb 40f 48f
11:06 16 23 mph 1006.3mb 40f 49f
11:00 8 15 mph 1006.2mb 40f 49f
10:54 8 10 mph 1006.1mb 40f 48f
10:48 7 8 mph 1005.9mb 40f 47f
10:42 7 9 mph 1005.8mb 40f 47f
10:36 9 11 mph 1006.1mb 40f 47f
10:30 10 11 mph 1006.3mb 40f 48f
10:24 11 14 mph 1006.4mb 40f 46f
10:18 10 13 mph 1006.2mb 40f 46f
10:12 9 13 mph 1006.2mb 40f 45f
10:06 9 10 mph 1006.4mb 40f 44f
10:00 10 11 mph 1006.4mb 40f 45f
9:54 11 13 mph 1006.6mb 40f 45f
9:48 10 11 mph 1006.7mb 40f 45f
9:42 11 14 mph 1006.9mb 40f 46f
9:36 11 14 mph 1007.1mb 40f 46f
9:30 11 14 mph 1007.3mb - -
9:24 9 10 mph 1007.2mb 40f 44f
9:18 8 9 mph 1007.3mb 40f 43f
9:12 9 10 mph 1007.3mb 40f 44f
9:06 8 9 mph 1007.4mb 40f 44f
9:00 8 9 mph 1007.5mb 40f 45f
8:54 7 9 mph 1007.4mb 40f 44f
8:48 8 9 mph 1007.5mb 40f 45f
8:42 6 8 mph 1007.6mb 40f 44f
8:36 6 8 mph 1007.8mb 40f 43f
8:30 6 8 mph 1008mb 40f 43f
8:24 7 9 mph 1008.3mb 40f 44f
8:18 11 20 mph 1008.5mb 40f 45f
8:12 10 13 mph 1008.7mb 40f 44f
8:06 10 11 mph 1009mb 40f 44f
8:00 10 13 mph 1009.2mb 40f 44f
7:30 6 8 mph 1009.5mb 40f 42f
7:24 6 7 mph 1009.7mb 40f 42f
7:18 5 6 mph 1009.8mb 40f 42f
7:12 6 6 mph 1009.9mb 40f 42f
7:06 6 7 mph 1010.1mb 40f 42f
7:00 8 9 mph 1010.4mb 40f 42f
6:54 7 8 mph 1010.5mb 40f 41f
6:48 5 6 mph 1010.3mb 40f 42f
6:42 5 6 mph 1010.4mb 40f 41f
6:36 5 6 mph 1010.4mb 40f 41f
6:30 3 5 mph 1010.4mb 40f 42f
6:24 3 6 mph 1010.3mb 39f 42f
6:18 5 6 mph 1010.2mb 39f 42f
6:12 3 6 mph 1010.4mb 39f 43f
6:06 5 7 mph 1010.5mb 39f 43f
6:00 6 8 mph 1010.7mb 39f 43f
5:54 5 7 mph 1010.7mb 39f 42f
5:48 5 6 mph 1010.7mb 39f 42f
5:42 6 7 mph 1010.9mb 39f 42f
5:36 5 6 mph 1010.8mb 39f 42f
5:30 6 7 mph 1011mb 39f 43f
5:24 2 3 mph 1011.3mb 39f 44f
5:18 1 2 mph 1011.5mb 39f 44f
5:12 2 2 mph 1011.6mb 39f 44f
5:06 1 2 mph 1011.9mb 39f 42f
5:00 1 2 mph 1012mb 39f 42f
4:54 3 3 mph 1012.2mb 39f 42f
4:48 2 3 mph 1012.3mb 39f 44f
4:42 2 3 mph 1012.2mb 39f 44f
4:36 1 2 mph 1012.4mb 39f 43f
4:30 3 3 mph 1012.6mb 39f 42f
4:24 3 5 mph 1012.7mb 39f 42f
4:18 5 5 mph 1012.5mb 39f 42f
4:12 6 7 mph 1012.7mb 39f 42f
4:06 3 6 mph 1012.9mb 39f 42f
4:00 3 7 mph - - -
3:54 6 8 mph 1013mb 39f 42f
3:48 8 9 mph 1013.1mb 39f 43f
3:42 8 10 mph 1013.2mb 39f 43f
3:36 8 9 mph 1013.3mb 39f 43f
3:30 6 8 mph 1013.2mb 39f 43f
3:24 7 8 mph 1013.4mb 39f 44f
3:18 8 10 mph 1013.6mb 39f 42f
3:12 5 6 mph 1013.3mb 39f 44f
3:06 6 8 mph 1013.4mb 39f 43f
3:00 8 9 mph 1013.5mb 39f 43f
2:54 5 8 mph 1013.6mb 39f 44f
2:48 3 6 mph 1013.8mb 39f 44f
2:42 7 9 mph 1014.2mb 39f 43f
2:36 6 7 mph 1014.5mb 39f 42f
2:30 6 7 mph 1014.6mb 39f 43f
2:24 6 7 mph 1014.6mb 39f 43f
2:18 5 6 mph 1014.7mb 39f 44f
2:12 5 6 mph 1014.9mb 39f 44f
2:06 5 10 mph 1015mb 39f 44f
2:00 7 9 mph 1014.9mb 39f 44f
1:54 8 11 mph 1015.1mb 39f 44f
1:48 7 13 mph 1015.3mb 39f 44f
1:42 5 7 mph 1015.6mb 39f 44f
1:36 6 9 mph 1015.9mb 39f 44f
1:30 6 9 mph 1016.1mb 39f 44f
1:24 6 9 mph 1016.3mb 39f 43f
1:18 6 9 mph 1016.5mb 39f 43f
1:12 5 7 mph 1016.7mb 39f 43f
1:06 7 11 mph 1016.8mb 39f 43f
1:00 10 14 mph 1017mb 39f 44f
12:54 6 8 mph 1017.3mb 39f 43f
12:48 7 9 mph 1017.5mb 39f 42f
12:42 6 10 mph 1017.4mb 39f 42f
12:36 8 15 mph 1017.6mb 39f 43f
12:30 10 18 mph 1017.8mb 39f 43f
12:24 6 13 mph 1018.2mb 39f 43f
12:18 6 14 mph 1018.4mb 39f 42f
12:12 8 13 mph 1018.5mb 39f 42f
12:06 8 14 mph 1018.7mb 39f 42f
12:00 10 16 mph 1019.1mb 39f 43f
11:54 7 13 mph 1019.4mb 39f 43f
11:48 8 15 mph 1019.6mb 39f 42f
11:42 9 15 mph 1019.7mb 39f 42f
11:36 8 13 mph 1019.9mb 39f 42f
11:30 6 11 mph 1020.1mb 39f -
11:24 9 15 mph 1020mb 39f 42f
11:18 10 15 mph 1020mb 39f 42f
11:12 9 13 mph 1020.1mb 39f 42f
11:06 10 15 mph 1020.2mb 39f 42f
11:00 10 16 mph 1020.3mb 39f 42f
10:54 11 17 mph 1020.2mb 39f 42f
10:48 9 18 mph 1020.4mb 39f 42f
10:42 11 16 mph 1020.7mb 39f 42f
10:36 8 14 mph 1021mb 39f 42f
10:30 10 14 mph 1021mb 39f 42f
10:24 10 16 mph 1021.2mb 39f 42f
10:18 7 14 mph 1021.4mb 39f 42f
10:12 8 16 mph 1021.6mb 39f 42f
10:06 9 13 mph 1021.7mb 39f 42f
10:00 7 11 mph 1021.6mb 39f 42f
9:54 10 15 mph 1021.6mb 39f 42f
9:48 9 13 mph 1021.6mb 39f 42f
9:42 8 13 mph 1021.6mb 39f 42f
9:36 10 17 mph 1021.5mb 39f 42f
9:30 11 17 mph 1021.7mb 39f 42f
9:24 11 16 mph 1021.8mb 39f 42f
9:18 11 17 mph 1021.9mb 39f 42f
9:12 11 17 mph 1022mb 39f 42f
9:06 9 14 mph 1022.6mb 39f 42f
9:00 6 10 mph 1022.6mb 39f 42f
8:54 11 20 mph 1022.1mb 39f 42f
8:48 13 17 mph 1022mb 39f 41f
8:42 13 18 mph 1022mb 39f 41f
8:36 11 21 mph 1022.1mb 39f 41f
8:30 9 16 mph 1022.4mb 39f 41f
8:24 9 14 mph 1022.6mb 39f 41f
8:18 11 18 mph 1022.5mb 39f 41f
8:12 13 20 mph 1022.6mb 39f 41f
8:06 14 22 mph 1022.7mb 39f 41f
8:00 13 21 mph 1022.9mb 39f 41f
7:54 13 20 mph 1023mb 39f 41f
7:48 13 17 mph 1023.4mb 39f 41f
7:42 10 16 mph 1023.7mb 39f 41f
7:36 10 16 mph 1023.7mb 39f 41f
7:30 11 16 mph 1023.6mb 39f 41f
7:24 11 16 mph 1023.4mb 39f 41f
7:18 11 17 mph 1023.2mb 39f 40f
7:12 14 20 mph 1023.1mb 39f 40f
7:06 14 20 mph 1023.2mb 39f 40f
7:00 11 20 mph 1023.4mb 39f 40f
6:54 11 17 mph 1023.4mb 39f 40f
6:48 10 17 mph 1023.4mb 39f 40f
6:42 11 17 mph 1023.4mb 39f 40f
6:36 13 20 mph 1023.4mb 39f 40f
6:30 15 22 mph 1023.5mb 39f 40f
6:24 14 23 mph 1023.7mb 39f 40f
6:18 13 18 mph 1024mb 39f 40f
6:12 14 22 mph 1023.9mb 39f 40f
6:06 14 22 mph 1023.8mb 39f 40f
6:00 14 24 mph 1023.7mb 39f 40f
5:54 13 22 mph 1023.9mb 39f 40f
5:48 13 21 mph - - -
5:42 11 17 mph 1024.1mb 39f 40f
5:36 13 21 mph 1024.2mb 39f 40f
5:30 14 23 mph 1024.3mb 39f 40f
5:24 14 20 mph 1024.5mb 39f 40f
5:18 14 20 mph 1024.4mb 39f 40f
5:12 11 20 mph 1024.4mb 39f 40f
5:06 13 18 mph 1024.3mb 39f 40f
5:00 13 18 mph 1024.3mb 39f 40f
4:54 13 21 mph 1024.3mb 39f 40f
4:48 11 17 mph 1024.3mb 39f 40f
4:42 14 18 mph 1024.3mb 39f 40f
4:36 13 20 mph 1024.4mb 39f 40f
4:30 11 20 mph 1024.5mb 39f 40f
4:24 11 20 mph 1024.6mb 39f 40f
4:18 11 18 mph - - -
4:12 14 26 mph 1024.7mb 39f 40f
4:06 13 18 mph 1024.8mb 39f 40f
4:00 15 22 mph 1024.8mb 39f 40f
3:54 14 22 mph 1024.8mb 39f 40f
3:48 14 22 mph 1024.8mb 39f 40f
3:42 14 21 mph 1024.8mb 39f 40f
3:36 13 20 mph 1024.9mb 39f 40f
3:30 14 23 mph 1024.9mb 39f 40f
3:24 13 17 mph 1024.9mb 39f 40f
3:18 9 17 mph 1024.9mb 39f 40f
3:12 10 17 mph 1024.9mb 39f 40f
3:06 13 21 mph 1024.9mb 39f 40f
3:00 11 18 mph 1025mb 39f 41f
2:54 11 20 mph 1025.1mb 39f 41f
2:48 13 17 mph 1025.1mb 39f 41f
2:42 13 18 mph 1025mb 39f 41f
2:36 11 16 mph 1025.1mb 39f 41f
2:30 13 18 mph 1025.1mb 39f 41f
2:24 11 18 mph 1025.1mb 39f 41f
2:18 11 15 mph 1025.2mb 39f 41f
2:12 10 20 mph 1025.2mb 39f 40f
2:06 13 18 mph 1025.5mb 39f 40f
2:00 10 16 mph 1025.7mb - -
1:54 11 17 mph 1025.8mb 39f 41f
1:48 11 18 mph 1025.7mb 39f 40f
1:42 10 18 mph 1025.8mb 39f 40f
1:36 11 16 mph 1025.7mb 39f 40f
1:30 10 17 mph - - -
1:24 11 17 mph 1026mb 39f 40f
1:18 10 16 mph 1026mb 39f 40f
1:12 11 16 mph 1026mb 39f 40f
1:06 10 15 mph 1026mb 39f 40f
1:00 10 16 mph 1025.9mb 39f 40f
12:54 10 18 mph 1026.1mb 39f 40f
12:48 8 14 mph 1026.1mb 39f 40f
12:42 9 14 mph 1026.1mb 39f 40f
12:36 11 16 mph 1026.1mb 39f 41f
12:30 9 15 mph 1026mb 39f 41f
12:24 10 18 mph 1026.2mb 39f 41f
12:18 9 17 mph 1026.2mb 39f 41f
12:12 10 16 mph 1026.1mb 39f 41f
12:06 10 15 mph 1026.3mb 39f 41f
12:00 8 11 mph 1026.5mb 39f 40f
lun 02/11 11:54 5 8 mph 1026.6mb 39f 40f
11:48 3 7 mph 1026.5mb 39f 40f
11:42 6 9 mph 1026.5mb 39f 40f
11:36 6 9 mph 1026.5mb 39f 39f
11:30 6 9 mph 1026.4mb 39f 39f
11:24 6 9 mph 1026.4mb 39f 39f
11:18 6 9 mph 1026.3mb 39f 39f
11:12 6 10 mph 1026.6mb 39f 39f
11:06 6 9 mph 1026.6mb 39f 39f
11:00 7 14 mph 1026.7mb 39f 39f
10:54 6 10 mph 1026.7mb 39f 39f
10:48 6 10 mph 1026.6mb 39f 38f
10:42 8 15 mph 1026.7mb 39f 38f
10:36 7 11 mph 1026.6mb 39f 38f
10:30 7 13 mph 1026.8mb 39f 38f
10:24 7 10 mph 1027.1mb 39f 38f
10:18 3 7 mph 1026.9mb 39f 38f
10:12 6 11 mph 1026.9mb 39f 38f
10:06 6 11 mph 1026.8mb 39f 38f
10:00 6 13 mph 1027mb 39f 38f
9:54 5 13 mph 1026.9mb 39f 38f
9:48 6 11 mph 1027mb 39f 39f
9:42 3 7 mph 1026.8mb 39f 39f
9:36 5 9 mph 1026.8mb 39f 39f
9:30 6 10 mph 1026.6mb 39f 38f
9:24 5 14 mph 1026.4mb 39f 38f
9:18 7 16 mph 1026.5mb 40f 38f
9:12 5 8 mph 1026.5mb 40f 38f
9:06 6 10 mph 1026.7mb 40f 38f
9:00 6 9 mph 1026.7mb 40f 38f
8:54 6 8 mph 1026.6mb 40f 38f
8:48 6 14 mph 1026.2mb 40f 37f
8:42 7 10 mph 1026.5mb 40f 38f
8:36 6 10 mph 1026.4mb 40f 38f
8:30 5 7 mph 1026.3mb 40f 38f
8:24 6 9 mph 1026mb 40f 38f
8:18 6 14 mph 1026.1mb 40f 38f
8:12 6 11 mph 1026.1mb 40f 37f
8:06 6 10 mph 1026mb 40f 37f
8:00 5 9 mph 1025.8mb 40f 37f
7:54 7 14 mph 1026.3mb 40f 37f
7:48 5 8 mph 1026.2mb 40f 37f
7:42 5 9 mph 1026.4mb 40f 37f
7:36 8 11 mph 1026.5mb 40f 37f
7:30 5 8 mph 1026.3mb 40f 37f
7:24 6 9 mph 1026.3mb 40f 37f
7:18 7 13 mph 1026.3mb 40f 37f